sensor_id;sensor_type;location;lat;lon;timestamp;P1;durP1;ratioP1;P2;durP2;ratioP2
77769;SDS011;66961;51.482;9.160;2023-12-20T00:00:56;4.97;;;2.47;;
77769;SDS011;66961;51.482;9.160;2023-12-20T00:03:22;4.47;;;3.00;;
77769;SDS011;66961;51.482;9.160;2023-12-20T00:05:47;4.07;;;2.77;;
77769;SDS011;66961;51.482;9.160;2023-12-20T00:08:12;4.43;;;2.72;;
77769;SDS011;66961;51.482;9.160;2023-12-20T00:10:38;4.10;;;2.80;;
77769;SDS011;66961;51.482;9.160;2023-12-20T00:13:03;4.30;;;2.90;;
77769;SDS011;66961;51.482;9.160;2023-12-20T00:15:28;4.97;;;2.90;;
77769;SDS011;66961;51.482;9.160;2023-12-20T00:17:54;5.33;;;3.17;;
77769;SDS011;66961;51.482;9.160;2023-12-20T00:20:19;4.97;;;3.13;;
77769;SDS011;66961;51.482;9.160;2023-12-20T00:22:44;4.23;;;3.17;;
77769;SDS011;66961;51.482;9.160;2023-12-20T00:25:09;6.40;;;2.73;;
77769;SDS011;66961;51.482;9.160;2023-12-20T00:27:35;5.60;;;3.72;;
77769;SDS011;66961;51.482;9.160;2023-12-20T00:30:00;5.33;;;3.30;;
77769;SDS011;66961;51.482;9.160;2023-12-20T00:32:25;5.53;;;3.23;;
77769;SDS011;66961;51.482;9.160;2023-12-20T00:34:51;4.43;;;2.97;;
77769;SDS011;66961;51.482;9.160;2023-12-20T00:37:16;5.53;;;3.37;;
77769;SDS011;66961;51.482;9.160;2023-12-20T00:39:41;4.80;;;2.93;;
77769;SDS011;66961;51.482;9.160;2023-12-20T00:42:06;5.50;;;2.90;;
77769;SDS011;66961;51.482;9.160;2023-12-20T00:44:32;9.80;;;4.23;;
77769;SDS011;66961;51.482;9.160;2023-12-20T00:46:57;6.57;;;3.50;;
77769;SDS011;66961;51.482;9.160;2023-12-20T00:49:22;5.77;;;3.43;;
77769;SDS011;66961;51.482;9.160;2023-12-20T00:51:47;4.67;;;2.83;;
77769;SDS011;66961;51.482;9.160;2023-12-20T00:54:13;5.40;;;3.33;;
77769;SDS011;66961;51.482;9.160;2023-12-20T00:56:38;4.70;;;3.07;;
77769;SDS011;66961;51.482;9.160;2023-12-20T00:59:03;4.97;;;3.10;;
77769;SDS011;66961;51.482;9.160;2023-12-20T01:01:28;6.63;;;3.47;;
77769;SDS011;66961;51.482;9.160;2023-12-20T01:03:54;6.13;;;3.60;;
77769;SDS011;66961;51.482;9.160;2023-12-20T01:06:19;6.60;;;3.93;;
77769;SDS011;66961;51.482;9.160;2023-12-20T01:08:44;5.57;;;3.40;;
77769;SDS011;66961;51.482;9.160;2023-12-20T01:11:10;6.57;;;3.60;;
77769;SDS011;66961;51.482;9.160;2023-12-20T01:13:35;8.80;;;4.15;;
77769;SDS011;66961;51.482;9.160;2023-12-20T01:16:00;6.30;;;3.70;;
77769;SDS011;66961;51.482;9.160;2023-12-20T01:18:25;6.10;;;4.03;;
77769;SDS011;66961;51.482;9.160;2023-12-20T01:20:51;4.63;;;2.90;;
77769;SDS011;66961;51.482;9.160;2023-12-20T01:23:16;5.68;;;3.60;;
77769;SDS011;66961;51.482;9.160;2023-12-20T01:25:41;4.13;;;2.57;;
77769;SDS011;66961;51.482;9.160;2023-12-20T01:28:07;5.30;;;3.13;;
77769;SDS011;66961;51.482;9.160;2023-12-20T01:30:32;3.93;;;2.60;;
77769;SDS011;66961;51.482;9.160;2023-12-20T01:32:59;6.03;;;2.20;;
77769;SDS011;66961;51.482;9.160;2023-12-20T01:35:25;3.95;;;2.10;;
77769;SDS011;66961;51.482;9.160;2023-12-20T01:37:50;3.53;;;1.00;;
77769;SDS011;66961;51.482;9.160;2023-12-20T01:40:15;1.97;;;1.20;;
77769;SDS011;66961;51.482;9.160;2023-12-20T01:42:41;2.70;;;0.83;;
77769;SDS011;66961;51.482;9.160;2023-12-20T01:45:06;7.50;;;1.00;;
77769;SDS011;66961;51.482;9.160;2023-12-20T01:47:32;2.60;;;0.80;;
77769;SDS011;66961;51.482;9.160;2023-12-20T01:49:57;1.50;;;0.73;;
77769;SDS011;66961;51.482;9.160;2023-12-20T01:52:22;1.88;;;0.68;;
77769;SDS011;66961;51.482;9.160;2023-12-20T01:54:50;4.20;;;0.95;;
77769;SDS011;66961;51.482;9.160;2023-12-20T01:57:16;3.08;;;1.10;;
77769;SDS011;66961;51.482;9.160;2023-12-20T01:59:41;3.25;;;1.00;;
77769;SDS011;66961;51.482;9.160;2023-12-20T02:02:07;2.55;;;1.65;;
77769;SDS011;66961;51.482;9.160;2023-12-20T02:04:32;9.57;;;1.73;;
77769;SDS011;66961;51.482;9.160;2023-12-20T02:06:58;6.10;;;1.45;;
77769;SDS011;66961;51.482;9.160;2023-12-20T02:09:24;4.45;;;1.40;;
77769;SDS011;66961;51.482;9.160;2023-12-20T02:11:49;5.03;;;1.50;;
77769;SDS011;66961;51.482;9.160;2023-12-20T02:14:17;6.38;;;2.55;;
77769;SDS011;66961;51.482;9.160;2023-12-20T02:16:42;4.07;;;1.60;;
77769;SDS011;66961;51.482;9.160;2023-12-20T02:19:09;7.53;;;1.80;;
77769;SDS011;66961;51.482;9.160;2023-12-20T02:21:38;4.70;;;1.52;;
77769;SDS011;66961;51.482;9.160;2023-12-20T02:24:04;3.73;;;1.37;;
77769;SDS011;66961;51.482;9.160;2023-12-20T02:26:29;4.22;;;1.70;;
77769;SDS011;66961;51.482;9.160;2023-12-20T02:28:56;8.63;;;2.42;;
77769;SDS011;66961;51.482;9.160;2023-12-20T02:31:22;9.00;;;3.03;;
77769;SDS011;66961;51.482;9.160;2023-12-20T02:33:48;6.45;;;1.92;;
77769;SDS011;66961;51.482;9.160;2023-12-20T02:36:13;6.37;;;2.87;;
77769;SDS011;66961;51.482;9.160;2023-12-20T02:38:38;4.63;;;1.97;;
77769;SDS011;66961;51.482;9.160;2023-12-20T02:41:03;5.60;;;1.90;;
77769;SDS011;66961;51.482;9.160;2023-12-20T02:43:29;7.83;;;2.40;;
77769;SDS011;66961;51.482;9.160;2023-12-20T02:45:54;5.83;;;2.33;;
77769;SDS011;66961;51.482;9.160;2023-12-20T02:48:19;4.53;;;1.63;;
77769;SDS011;66961;51.482;9.160;2023-12-20T02:50:45;6.03;;;1.93;;
77769;SDS011;66961;51.482;9.160;2023-12-20T02:53:12;6.75;;;1.40;;
77769;SDS011;66961;51.482;9.160;2023-12-20T02:55:37;9.63;;;2.20;;
77769;SDS011;66961;51.482;9.160;2023-12-20T02:58:02;6.07;;;1.73;;
77769;SDS011;66961;51.482;9.160;2023-12-20T03:00:28;6.40;;;2.10;;
77769;SDS011;66961;51.482;9.160;2023-12-20T03:02:53;6.33;;;1.47;;
77769;SDS011;66961;51.482;9.160;2023-12-20T03:05:18;7.53;;;1.80;;
77769;SDS011;66961;51.482;9.160;2023-12-20T03:07:44;4.27;;;1.60;;
77769;SDS011;66961;51.482;9.160;2023-12-20T03:10:09;7.53;;;2.00;;
77769;SDS011;66961;51.482;9.160;2023-12-20T03:12:34;5.67;;;2.03;;
77769;SDS011;66961;51.482;9.160;2023-12-20T03:14:59;8.52;;;2.20;;
77769;SDS011;66961;51.482;9.160;2023-12-20T03:17:25;11.57;;;2.50;;
77769;SDS011;66961;51.482;9.160;2023-12-20T03:19:50;6.07;;;2.47;;
77769;SDS011;66961;51.482;9.160;2023-12-20T03:22:15;6.40;;;2.70;;
77769;SDS011;66961;51.482;9.160;2023-12-20T03:24:41;6.03;;;2.33;;
77769;SDS011;66961;51.482;9.160;2023-12-20T03:27:06;8.02;;;3.13;;
77769;SDS011;66961;51.482;9.160;2023-12-20T03:29:31;10.47;;;2.97;;
77769;SDS011;66961;51.482;9.160;2023-12-20T03:31:56;8.20;;;2.87;;
77769;SDS011;66961;51.482;9.160;2023-12-20T03:34:22;10.93;;;3.40;;
77769;SDS011;66961;51.482;9.160;2023-12-20T03:36:47;8.53;;;3.10;;
77769;SDS011;66961;51.482;9.160;2023-12-20T03:39:15;9.40;;;3.38;;
77769;SDS011;66961;51.482;9.160;2023-12-20T03:41:40;10.47;;;3.10;;
77769;SDS011;66961;51.482;9.160;2023-12-20T03:44:05;8.70;;;3.33;;
77769;SDS011;66961;51.482;9.160;2023-12-20T03:46:31;9.83;;;2.60;;
77769;SDS011;66961;51.482;9.160;2023-12-20T03:48:56;9.87;;;2.43;;
77769;SDS011;66961;51.482;9.160;2023-12-20T03:51:21;8.47;;;3.20;;
77769;SDS011;66961;51.482;9.160;2023-12-20T03:53:46;6.63;;;2.40;;
77769;SDS011;66961;51.482;9.160;2023-12-20T03:56:12;10.23;;;3.80;;
77769;SDS011;66961;51.482;9.160;2023-12-20T03:58:37;7.00;;;2.13;;
77769;SDS011;66961;51.482;9.160;2023-12-20T04:01:02;6.10;;;2.13;;
77769;SDS011;66961;51.482;9.160;2023-12-20T04:03:28;5.82;;;2.17;;
77769;SDS011;66961;51.482;9.160;2023-12-20T04:05:53;5.10;;;2.33;;
77769;SDS011;66961;51.482;9.160;2023-12-20T04:08:18;7.87;;;2.53;;
77769;SDS011;66961;51.482;9.160;2023-12-20T04:10:43;10.57;;;3.10;;
77769;SDS011;66961;51.482;9.160;2023-12-20T04:13:09;6.17;;;2.47;;
77769;SDS011;66961;51.482;9.160;2023-12-20T04:15:34;9.43;;;3.27;;
77769;SDS011;66961;51.482;9.160;2023-12-20T04:17:59;10.57;;;2.70;;
77769;SDS011;66961;51.482;9.160;2023-12-20T04:20:24;6.70;;;2.47;;
77769;SDS011;66961;51.482;9.160;2023-12-20T04:22:50;8.67;;;2.10;;
77769;SDS011;66961;51.482;9.160;2023-12-20T04:25:15;5.53;;;2.37;;
77769;SDS011;66961;51.482;9.160;2023-12-20T04:27:40;10.73;;;2.77;;
77769;SDS011;66961;51.482;9.160;2023-12-20T04:30:06;7.40;;;2.23;;
77769;SDS011;66961;51.482;9.160;2023-12-20T04:32:31;9.25;;;2.20;;
77769;SDS011;66961;51.482;9.160;2023-12-20T04:34:57;7.93;;;1.87;;
77769;SDS011;66961;51.482;9.160;2023-12-20T04:37:22;8.13;;;2.40;;
77769;SDS011;66961;51.482;9.160;2023-12-20T04:39:47;5.13;;;1.90;;
77769;SDS011;66961;51.482;9.160;2023-12-20T04:42:13;7.60;;;1.93;;
77769;SDS011;66961;51.482;9.160;2023-12-20T04:44:38;9.60;;;1.80;;
77769;SDS011;66961;51.482;9.160;2023-12-20T04:47:03;8.27;;;1.70;;
77769;SDS011;66961;51.482;9.160;2023-12-20T04:49:28;4.93;;;1.70;;
77769;SDS011;66961;51.482;9.160;2023-12-20T04:51:54;11.65;;;2.33;;
77769;SDS011;66961;51.482;9.160;2023-12-20T04:54:19;6.88;;;1.48;;
77769;SDS011;66961;51.482;9.160;2023-12-20T04:56:44;4.37;;;1.10;;
77769;SDS011;66961;51.482;9.160;2023-12-20T04:59:10;4.57;;;1.20;;
77769;SDS011;66961;51.482;9.160;2023-12-20T05:01:35;5.87;;;1.10;;
77769;SDS011;66961;51.482;9.160;2023-12-20T05:04:00;6.80;;;1.33;;
77769;SDS011;66961;51.482;9.160;2023-12-20T05:06:25;6.57;;;1.83;;
77769;SDS011;66961;51.482;9.160;2023-12-20T05:08:51;4.60;;;1.50;;
77769;SDS011;66961;51.482;9.160;2023-12-20T05:11:16;4.83;;;1.37;;
77769;SDS011;66961;51.482;9.160;2023-12-20T05:13:41;5.63;;;1.60;;
77769;SDS011;66961;51.482;9.160;2023-12-20T05:16:06;7.60;;;1.57;;
77769;SDS011;66961;51.482;9.160;2023-12-20T05:18:32;8.40;;;1.60;;
77769;SDS011;66961;51.482;9.160;2023-12-20T05:20:57;7.57;;;2.03;;
77769;SDS011;66961;51.482;9.160;2023-12-20T05:23:23;5.45;;;1.85;;
77769;SDS011;66961;51.482;9.160;2023-12-20T05:25:48;7.07;;;1.97;;
77769;SDS011;66961;51.482;9.160;2023-12-20T05:28:13;7.97;;;2.73;;
77769;SDS011;66961;51.482;9.160;2023-12-20T05:30:39;7.63;;;2.27;;
77769;SDS011;66961;51.482;9.160;2023-12-20T05:33:04;7.57;;;2.10;;
77769;SDS011;66961;51.482;9.160;2023-12-20T05:35:29;5.80;;;1.60;;
77769;SDS011;66961;51.482;9.160;2023-12-20T05:37:57;9.10;;;2.17;;
77769;SDS011;66961;51.482;9.160;2023-12-20T05:40:23;9.70;;;1.70;;
77769;SDS011;66961;51.482;9.160;2023-12-20T05:42:48;9.13;;;1.80;;
77769;SDS011;66961;51.482;9.160;2023-12-20T05:45:14;4.03;;;2.43;;
77769;SDS011;66961;51.482;9.160;2023-12-20T05:47:39;8.07;;;1.73;;
77769;SDS011;66961;51.482;9.160;2023-12-20T05:50:05;6.97;;;2.13;;
77769;SDS011;66961;51.482;9.160;2023-12-20T05:52:30;9.23;;;2.15;;
77769;SDS011;66961;51.482;9.160;2023-12-20T05:54:56;5.23;;;1.50;;
77769;SDS011;66961;51.482;9.160;2023-12-20T05:57:21;8.07;;;1.83;;
77769;SDS011;66961;51.482;9.160;2023-12-20T05:59:46;8.27;;;2.17;;
77769;SDS011;66961;51.482;9.160;2023-12-20T06:02:11;5.23;;;1.33;;
77769;SDS011;66961;51.482;9.160;2023-12-20T06:04:37;11.03;;;2.60;;
77769;SDS011;66961;51.482;9.160;2023-12-20T06:07:02;7.73;;;1.97;;
77769;SDS011;66961;51.482;9.160;2023-12-20T06:09:27;7.97;;;1.98;;
77769;SDS011;66961;51.482;9.160;2023-12-20T06:11:53;5.80;;;1.47;;
77769;SDS011;66961;51.482;9.160;2023-12-20T06:14:18;11.95;;;2.45;;
77769;SDS011;66961;51.482;9.160;2023-12-20T06:16:43;7.97;;;2.15;;
77769;SDS011;66961;51.482;9.160;2023-12-20T06:19:10;10.13;;;2.20;;
77769;SDS011;66961;51.482;9.160;2023-12-20T06:21:35;5.63;;;1.80;;
77769;SDS011;66961;51.482;9.160;2023-12-20T06:24:00;7.17;;;1.60;;
77769;SDS011;66961;51.482;9.160;2023-12-20T06:26:25;8.80;;;1.70;;
77769;SDS011;66961;51.482;9.160;2023-12-20T06:28:51;12.73;;;2.17;;
77769;SDS011;66961;51.482;9.160;2023-12-20T06:31:16;11.43;;;2.37;;
77769;SDS011;66961;51.482;9.160;2023-12-20T06:33:42;7.57;;;1.95;;
77769;SDS011;66961;51.482;9.160;2023-12-20T06:36:10;7.63;;;1.90;;
77769;SDS011;66961;51.482;9.160;2023-12-20T06:38:36;9.23;;;3.05;;
77769;SDS011;66961;51.482;9.160;2023-12-20T06:41:01;7.22;;;2.00;;
77769;SDS011;66961;51.482;9.160;2023-12-20T06:43:27;9.20;;;2.03;;
77769;SDS011;66961;51.482;9.160;2023-12-20T06:45:52;8.30;;;1.77;;
77769;SDS011;66961;51.482;9.160;2023-12-20T06:48:17;7.23;;;2.07;;
77769;SDS011;66961;51.482;9.160;2023-12-20T06:50:43;11.43;;;2.17;;
77769;SDS011;66961;51.482;9.160;2023-12-20T06:53:08;11.87;;;2.50;;
77769;SDS011;66961;51.482;9.160;2023-12-20T06:55:34;12.20;;;3.17;;
77769;SDS011;66961;51.482;9.160;2023-12-20T06:58:01;13.60;;;2.13;;
77769;SDS011;66961;51.482;9.160;2023-12-20T07:00:26;10.15;;;2.70;;
77769;SDS011;66961;51.482;9.160;2023-12-20T07:02:52;11.17;;;2.40;;
77769;SDS011;66961;51.482;9.160;2023-12-20T07:05:17;7.50;;;2.20;;
77769;SDS011;66961;51.482;9.160;2023-12-20T07:07:42;8.87;;;2.47;;
77769;SDS011;66961;51.482;9.160;2023-12-20T07:10:07;12.70;;;2.60;;
77769;SDS011;66961;51.482;9.160;2023-12-20T07:12:33;12.38;;;2.80;;
77769;SDS011;66961;51.482;9.160;2023-12-20T07:14:58;9.30;;;2.80;;
77769;SDS011;66961;51.482;9.160;2023-12-20T07:17:23;6.50;;;2.40;;
77769;SDS011;66961;51.482;9.160;2023-12-20T07:19:49;9.57;;;3.67;;
77769;SDS011;66961;51.482;9.160;2023-12-20T07:22:15;11.60;;;2.85;;
77769;SDS011;66961;51.482;9.160;2023-12-20T07:24:40;8.47;;;3.40;;
77769;SDS011;66961;51.482;9.160;2023-12-20T07:27:06;13.83;;;2.63;;
77769;SDS011;66961;51.482;9.160;2023-12-20T07:29:31;13.43;;;3.07;;
77769;SDS011;66961;51.482;9.160;2023-12-20T07:31:56;9.53;;;2.60;;
77769;SDS011;66961;51.482;9.160;2023-12-20T07:34:21;10.90;;;2.53;;
77769;SDS011;66961;51.482;9.160;2023-12-20T07:36:47;8.93;;;2.63;;
77769;SDS011;66961;51.482;9.160;2023-12-20T07:39:12;11.03;;;2.87;;
77769;SDS011;66961;51.482;9.160;2023-12-20T07:41:37;8.45;;;2.45;;
77769;SDS011;66961;51.482;9.160;2023-12-20T07:44:04;11.60;;;2.67;;
77769;SDS011;66961;51.482;9.160;2023-12-20T07:46:29;11.23;;;2.50;;
77769;SDS011;66961;51.482;9.160;2023-12-20T07:48:55;10.27;;;3.50;;
77769;SDS011;66961;51.482;9.160;2023-12-20T07:51:20;9.70;;;2.40;;
77769;SDS011;66961;51.482;9.160;2023-12-20T07:53:45;13.43;;;2.97;;
77769;SDS011;66961;51.482;9.160;2023-12-20T07:56:17;6.17;;;1.90;;
77769;SDS011;66961;51.482;9.160;2023-12-20T07:58:43;15.43;;;2.70;;
77769;SDS011;66961;51.482;9.160;2023-12-20T08:01:10;8.75;;;2.35;;
77769;SDS011;66961;51.482;9.160;2023-12-20T08:03:36;7.30;;;2.35;;
77769;SDS011;66961;51.482;9.160;2023-12-20T08:06:02;11.18;;;2.22;;
77769;SDS011;66961;51.482;9.160;2023-12-20T08:08:27;9.68;;;2.30;;
77769;SDS011;66961;51.482;9.160;2023-12-20T08:10:53;12.70;;;2.47;;
77769;SDS011;66961;51.482;9.160;2023-12-20T08:13:18;10.50;;;3.55;;
77769;SDS011;66961;51.482;9.160;2023-12-20T08:15:43;13.37;;;2.20;;
77769;SDS011;66961;51.482;9.160;2023-12-20T08:18:09;7.50;;;2.33;;
77769;SDS011;66961;51.482;9.160;2023-12-20T08:20:34;8.17;;;2.00;;
77769;SDS011;66961;51.482;9.160;2023-12-20T08:22:59;9.60;;;2.20;;
77769;SDS011;66961;51.482;9.160;2023-12-20T08:25:24;8.07;;;2.50;;
77769;SDS011;66961;51.482;9.160;2023-12-20T08:27:50;7.83;;;2.30;;
77769;SDS011;66961;51.482;9.160;2023-12-20T08:30:15;11.77;;;2.87;;
77769;SDS011;66961;51.482;9.160;2023-12-20T08:32:40;12.00;;;2.80;;
77769;SDS011;66961;51.482;9.160;2023-12-20T08:35:05;9.67;;;2.70;;
77769;SDS011;66961;51.482;9.160;2023-12-20T08:37:31;5.28;;;2.08;;
77769;SDS011;66961;51.482;9.160;2023-12-20T08:39:56;11.23;;;2.40;;
77769;SDS011;66961;51.482;9.160;2023-12-20T08:42:22;10.90;;;2.60;;
77769;SDS011;66961;51.482;9.160;2023-12-20T08:44:47;8.10;;;2.17;;
77769;SDS011;66961;51.482;9.160;2023-12-20T08:47:12;8.83;;;3.07;;
77769;SDS011;66961;51.482;9.160;2023-12-20T08:49:37;11.70;;;2.47;;
77769;SDS011;66961;51.482;9.160;2023-12-20T08:52:03;9.17;;;2.50;;
77769;SDS011;66961;51.482;9.160;2023-12-20T08:54:28;9.30;;;2.55;;
77769;SDS011;66961;51.482;9.160;2023-12-20T08:56:53;9.50;;;2.80;;
77769;SDS011;66961;51.482;9.160;2023-12-20T08:59:19;7.80;;;2.60;;
77769;SDS011;66961;51.482;9.160;2023-12-20T09:01:44;8.43;;;2.20;;
77769;SDS011;66961;51.482;9.160;2023-12-20T09:04:09;11.63;;;3.67;;
77769;SDS011;66961;51.482;9.160;2023-12-20T09:06:34;9.77;;;2.37;;
77769;SDS011;66961;51.482;9.160;2023-12-20T09:09:00;9.90;;;2.87;;
77769;SDS011;66961;51.482;9.160;2023-12-20T09:11:25;6.57;;;3.10;;
77769;SDS011;66961;51.482;9.160;2023-12-20T09:13:50;11.83;;;2.70;;
77769;SDS011;66961;51.482;9.160;2023-12-20T09:16:15;13.80;;;2.87;;
77769;SDS011;66961;51.482;9.160;2023-12-20T09:18:41;7.10;;;3.10;;
77769;SDS011;66961;51.482;9.160;2023-12-20T09:21:06;10.75;;;2.30;;
77769;SDS011;66961;51.482;9.160;2023-12-20T09:23:32;11.50;;;2.20;;
77769;SDS011;66961;51.482;9.160;2023-12-20T09:25:57;10.63;;;2.53;;
77769;SDS011;66961;51.482;9.160;2023-12-20T09:28:22;13.30;;;2.73;;
77769;SDS011;66961;51.482;9.160;2023-12-20T09:30:48;7.82;;;2.42;;
77769;SDS011;66961;51.482;9.160;2023-12-20T09:33:14;10.17;;;2.80;;
77769;SDS011;66961;51.482;9.160;2023-12-20T09:35:39;10.65;;;2.72;;
77769;SDS011;66961;51.482;9.160;2023-12-20T09:38:04;8.30;;;2.83;;
77769;SDS011;66961;51.482;9.160;2023-12-20T09:40:30;8.80;;;2.73;;
77769;SDS011;66961;51.482;9.160;2023-12-20T09:42:58;8.75;;;2.72;;
77769;SDS011;66961;51.482;9.160;2023-12-20T09:45:28;5.88;;;3.03;;
77769;SDS011;66961;51.482;9.160;2023-12-20T09:47:55;9.35;;;2.75;;
77769;SDS011;66961;51.482;9.160;2023-12-20T09:50:22;10.30;;;2.80;;
77769;SDS011;66961;51.482;9.160;2023-12-20T09:52:49;9.48;;;2.67;;
77769;SDS011;66961;51.482;9.160;2023-12-20T09:55:17;13.38;;;3.00;;
77769;SDS011;66961;51.482;9.160;2023-12-20T09:57:42;8.80;;;2.65;;
77769;SDS011;66961;51.482;9.160;2023-12-20T10:00:08;7.23;;;2.43;;
77769;SDS011;66961;51.482;9.160;2023-12-20T10:02:34;8.10;;;3.30;;
77769;SDS011;66961;51.482;9.160;2023-12-20T10:05:03;8.70;;;3.15;;
77769;SDS011;66961;51.482;9.160;2023-12-20T10:07:32;9.35;;;2.65;;
77769;SDS011;66961;51.482;9.160;2023-12-20T10:09:58;9.60;;;3.23;;
77769;SDS011;66961;51.482;9.160;2023-12-20T10:12:23;10.27;;;2.87;;
77769;SDS011;66961;51.482;9.160;2023-12-20T10:14:48;14.73;;;2.87;;
77769;SDS011;66961;51.482;9.160;2023-12-20T10:17:14;8.23;;;2.60;;
77769;SDS011;66961;51.482;9.160;2023-12-20T10:19:39;9.23;;;3.20;;
77769;SDS011;66961;51.482;9.160;2023-12-20T10:22:04;7.47;;;3.17;;
77769;SDS011;66961;51.482;9.160;2023-12-20T10:24:30;9.85;;;3.00;;
77769;SDS011;66961;51.482;9.160;2023-12-20T10:27:02;6.78;;;2.80;;
77769;SDS011;66961;51.482;9.160;2023-12-20T10:29:28;6.60;;;2.35;;
77769;SDS011;66961;51.482;9.160;2023-12-20T10:31:59;14.15;;;3.35;;
77769;SDS011;66961;51.482;9.160;2023-12-20T10:34:24;10.63;;;3.43;;
77769;SDS011;66961;51.482;9.160;2023-12-20T10:36:49;8.23;;;2.77;;
77769;SDS011;66961;51.482;9.160;2023-12-20T10:39:15;12.70;;;3.33;;
77769;SDS011;66961;51.482;9.160;2023-12-20T10:41:40;11.07;;;3.30;;
77769;SDS011;66961;51.482;9.160;2023-12-20T10:44:07;8.18;;;2.80;;
77769;SDS011;66961;51.482;9.160;2023-12-20T10:46:35;4.50;;;2.60;;
77769;SDS011;66961;51.482;9.160;2023-12-20T10:49:04;12.52;;;2.90;;
77769;SDS011;66961;51.482;9.160;2023-12-20T10:51:30;7.72;;;2.78;;
77769;SDS011;66961;51.482;9.160;2023-12-20T10:53:56;10.82;;;2.80;;
77769;SDS011;66961;51.482;9.160;2023-12-20T10:56:22;6.88;;;2.60;;
77769;SDS011;66961;51.482;9.160;2023-12-20T10:58:47;4.00;;;2.20;;
77769;SDS011;66961;51.482;9.160;2023-12-20T11:01:13;6.88;;;2.75;;
77769;SDS011;66961;51.482;9.160;2023-12-20T11:03:39;11.07;;;2.55;;
77769;SDS011;66961;51.482;9.160;2023-12-20T11:08:52;4.88;;;2.20;;
77769;SDS011;66961;51.482;9.160;2023-12-20T11:11:29;8.02;;;2.83;;
77769;SDS011;66961;51.482;9.160;2023-12-20T11:14:01;4.93;;;2.60;;
77769;SDS011;66961;51.482;9.160;2023-12-20T11:16:30;9.13;;;2.55;;
77769;SDS011;66961;51.482;9.160;2023-12-20T11:18:56;9.98;;;2.55;;
77769;SDS011;66961;51.482;9.160;2023-12-20T11:21:21;9.03;;;3.00;;
77769;SDS011;66961;51.482;9.160;2023-12-20T11:23:47;6.27;;;2.60;;
77769;SDS011;66961;51.482;9.160;2023-12-20T11:26:15;12.23;;;2.40;;
77769;SDS011;66961;51.482;9.160;2023-12-20T11:28:41;6.15;;;2.10;;
77769;SDS011;66961;51.482;9.160;2023-12-20T11:31:06;8.87;;;3.07;;
77769;SDS011;66961;51.482;9.160;2023-12-20T11:33:38;8.00;;;2.03;;
77769;SDS011;66961;51.482;9.160;2023-12-20T11:36:03;6.93;;;2.42;;
77769;SDS011;66961;51.482;9.160;2023-12-20T11:38:37;9.73;;;2.55;;
77769;SDS011;66961;51.482;9.160;2023-12-20T11:41:04;10.30;;;2.40;;
77769;SDS011;66961;51.482;9.160;2023-12-20T11:43:39;10.80;;;2.60;;
77769;SDS011;66961;51.482;9.160;2023-12-20T11:46:05;6.97;;;2.25;;
77769;SDS011;66961;51.482;9.160;2023-12-20T11:48:31;8.27;;;2.20;;
77769;SDS011;66961;51.482;9.160;2023-12-20T11:50:58;5.07;;;2.20;;
77769;SDS011;66961;51.482;9.160;2023-12-20T11:53:23;11.30;;;2.80;;
77769;SDS011;66961;51.482;9.160;2023-12-20T11:55:49;10.23;;;2.50;;
77769;SDS011;66961;51.482;9.160;2023-12-20T11:58:14;9.38;;;2.53;;
77769;SDS011;66961;51.482;9.160;2023-12-20T12:00:39;7.60;;;2.55;;
77769;SDS011;66961;51.482;9.160;2023-12-20T12:03:06;8.02;;;2.22;;
77769;SDS011;66961;51.482;9.160;2023-12-20T12:05:31;7.47;;;2.83;;
77769;SDS011;66961;51.482;9.160;2023-12-20T12:07:56;4.80;;;1.97;;
77769;SDS011;66961;51.482;9.160;2023-12-20T12:10:22;7.17;;;2.30;;
77769;SDS011;66961;51.482;9.160;2023-12-20T12:12:47;7.23;;;2.23;;
77769;SDS011;66961;51.482;9.160;2023-12-20T12:15:12;7.68;;;2.60;;
77769;SDS011;66961;51.482;9.160;2023-12-20T12:17:39;7.93;;;2.75;;
77769;SDS011;66961;51.482;9.160;2023-12-20T12:20:05;10.52;;;2.45;;
77769;SDS011;66961;51.482;9.160;2023-12-20T12:22:30;11.15;;;2.60;;
77769;SDS011;66961;51.482;9.160;2023-12-20T12:24:58;6.95;;;2.78;;
77769;SDS011;66961;51.482;9.160;2023-12-20T12:27:24;8.13;;;2.83;;
77769;SDS011;66961;51.482;9.160;2023-12-20T12:30:03;9.63;;;3.00;;
77769;SDS011;66961;51.482;9.160;2023-12-20T12:32:30;7.97;;;3.25;;
77769;SDS011;66961;51.482;9.160;2023-12-20T12:34:55;14.20;;;3.55;;
77769;SDS011;66961;51.482;9.160;2023-12-20T12:37:22;7.30;;;3.05;;
77769;SDS011;66961;51.482;9.160;2023-12-20T12:39:47;12.15;;;3.05;;
77769;SDS011;66961;51.482;9.160;2023-12-20T12:42:12;8.43;;;2.77;;
77769;SDS011;66961;51.482;9.160;2023-12-20T12:44:38;8.70;;;2.87;;
77769;SDS011;66961;51.482;9.160;2023-12-20T12:47:03;6.97;;;3.13;;
77769;SDS011;66961;51.482;9.160;2023-12-20T12:49:28;8.25;;;3.45;;
77769;SDS011;66961;51.482;9.160;2023-12-20T12:51:54;8.20;;;3.00;;
77769;SDS011;66961;51.482;9.160;2023-12-20T12:54:19;10.47;;;3.67;;
77769;SDS011;66961;51.482;9.160;2023-12-20T12:56:44;9.60;;;3.13;;
77769;SDS011;66961;51.482;9.160;2023-12-20T12:59:10;7.10;;;3.13;;
77769;SDS011;66961;51.482;9.160;2023-12-20T13:01:35;7.32;;;2.83;;
77769;SDS011;66961;51.482;9.160;2023-12-20T13:04:00;7.50;;;2.70;;
77769;SDS011;66961;51.482;9.160;2023-12-20T13:06:26;5.30;;;3.20;;
77769;SDS011;66961;51.482;9.160;2023-12-20T13:08:51;7.63;;;2.83;;
77769;SDS011;66961;51.482;9.160;2023-12-20T13:11:16;8.43;;;3.17;;
77769;SDS011;66961;51.482;9.160;2023-12-20T13:13:41;7.77;;;3.07;;
77769;SDS011;66961;51.482;9.160;2023-12-20T13:16:07;7.97;;;3.10;;
77769;SDS011;66961;51.482;9.160;2023-12-20T13:18:32;5.15;;;3.00;;
77769;SDS011;66961;51.482;9.160;2023-12-20T13:20:58;7.32;;;2.80;;
77769;SDS011;66961;51.482;9.160;2023-12-20T13:23:23;9.70;;;2.67;;
77769;SDS011;66961;51.482;9.160;2023-12-20T13:25:48;8.77;;;2.50;;
77769;SDS011;66961;51.482;9.160;2023-12-20T13:28:14;7.50;;;3.23;;
77769;SDS011;66961;51.482;9.160;2023-12-20T13:30:39;7.10;;;2.53;;
77769;SDS011;66961;51.482;9.160;2023-12-20T13:33:05;7.40;;;2.92;;
77769;SDS011;66961;51.482;9.160;2023-12-20T13:35:30;7.93;;;2.85;;
77769;SDS011;66961;51.482;9.160;2023-12-20T13:37:56;10.43;;;2.45;;
77769;SDS011;66961;51.482;9.160;2023-12-20T13:40:21;7.87;;;2.00;;
77769;SDS011;66961;51.482;9.160;2023-12-20T13:42:47;7.18;;;2.60;;
77769;SDS011;66961;51.482;9.160;2023-12-20T13:45:12;8.97;;;2.13;;
77769;SDS011;66961;51.482;9.160;2023-12-20T13:47:37;11.25;;;2.47;;
77769;SDS011;66961;51.482;9.160;2023-12-20T13:50:03;5.23;;;1.70;;
77769;SDS011;66961;51.482;9.160;2023-12-20T13:52:28;6.20;;;1.85;;
77769;SDS011;66961;51.482;9.160;2023-12-20T13:54:54;8.68;;;2.03;;
77769;SDS011;66961;51.482;9.160;2023-12-20T13:57:19;10.13;;;2.30;;
77769;SDS011;66961;51.482;9.160;2023-12-20T13:59:44;4.80;;;2.03;;
77769;SDS011;66961;51.482;9.160;2023-12-20T14:02:10;5.70;;;1.87;;
77769;SDS011;66961;51.482;9.160;2023-12-20T14:07:13;5.90;;;1.60;;
77769;SDS011;66961;51.482;9.160;2023-12-20T14:09:38;7.20;;;2.00;;
77769;SDS011;66961;51.482;9.160;2023-12-20T14:12:04;6.97;;;1.98;;
77769;SDS011;66961;51.482;9.160;2023-12-20T14:14:29;4.38;;;1.55;;
77769;SDS011;66961;51.482;9.160;2023-12-20T14:16:55;4.47;;;2.20;;
77769;SDS011;66961;51.482;9.160;2023-12-20T14:19:20;6.30;;;2.67;;
77769;SDS011;66961;51.482;9.160;2023-12-20T14:21:45;8.03;;;1.73;;
77769;SDS011;66961;51.482;9.160;2023-12-20T14:24:12;5.03;;;1.93;;
77769;SDS011;66961;51.482;9.160;2023-12-20T14:26:38;5.30;;;2.05;;
77769;SDS011;66961;51.482;9.160;2023-12-20T14:29:03;4.37;;;2.27;;
77769;SDS011;66961;51.482;9.160;2023-12-20T14:31:28;4.33;;;1.87;;
77769;SDS011;66961;51.482;9.160;2023-12-20T14:33:53;5.07;;;1.97;;
77769;SDS011;66961;51.482;9.160;2023-12-20T14:36:19;5.47;;;2.20;;
77769;SDS011;66961;51.482;9.160;2023-12-20T14:38:44;4.33;;;2.20;;
77769;SDS011;66961;51.482;9.160;2023-12-20T14:41:10;7.00;;;2.22;;